Time;durP1;ratioP1;P1;durP2;ratioP2;P2;SDS_P1;SDS_P2;PMS_P1;PMS_P2;Temp;Humidity;BMP_temperature;BMP_pressure;BME280_temperature;BME280_humidity;BME280_pressure;Samples;Min_cycle;Max_cycle;Signal;HPM_P1;HPM_P2
2022/11/13 00:02:24;;;;;;;77.93;42.87;;;;;;;4.09;81.00;102089.95;124073;1102;104179;-73
2022/11/13 00:05:14;;;;;;;72.63;41.07;;;;;;;4.03;81.38;102087.72;124090;1102;104341;-74
2022/11/13 00:08:04;;;;;;;74.13;41.10;;;;;;;4.01;81.34;102083.19;124051;1102;117883;-74
2022/11/13 00:10:59;;;;;;;70.83;41.40;;;;;;;4.02;81.46;102082.38;124035;1101;104348;-74
2022/11/13 00:13:49;;;;;;;73.13;42.07;;;;;;;4.06;81.92;102081.89;124129;1102;102489;-74
2022/11/13 00:16:39;;;;;;;72.73;39.57;;;;;;;4.11;81.57;102080.59;124138;1102;103130;-74
2022/11/13 00:19:29;;;;;;;72.73;41.33;;;;;;;4.12;81.80;102088.52;124090;1102;104281;-74
2022/11/13 00:22:18;;;;;;;67.43;39.20;;;;;;;4.11;81.47;102076.33;124146;1102;104284;-74
2022/11/13 00:25:09;;;;;;;69.67;38.90;;;;;;;4.15;81.99;102087.88;124074;1102;104434;-73
2022/11/13 00:27:59;;;;;;;76.13;40.23;;;;;;;4.09;81.37;102082.16;124059;1102;104720;-74
2022/11/13 00:30:48;;;;;;;77.03;41.07;;;;;;;4.04;81.24;102078.25;124081;1102;104176;-74
2022/11/13 00:33:38;;;;;;;81.63;40.43;;;;;;;4.04;82.12;102076.56;124097;1102;104245;-74
2022/11/13 00:36:29;;;;;;;78.73;41.03;;;;;;;4.03;81.65;102077.32;124041;1102;104242;-74
2022/11/13 00:39:19;;;;;;;78.90;40.67;;;;;;;4.01;82.21;102071.09;124047;1102;104242;-74
2022/11/13 00:42:09;;;;;;;86.33;41.57;;;;;;;4.00;81.91;102073.56;124046;1102;104376;-74
2022/11/13 00:44:58;;;;;;;75.30;40.43;;;;;;;3.91;81.62;102073.66;124028;1102;104286;-74
2022/11/13 00:47:48;;;;;;;72.55;40.40;;;;;;;3.87;82.08;102069.88;124043;1102;104242;-74
2022/11/13 00:50:38;;;;;;;68.73;39.07;;;;;;;3.85;82.07;102061.06;124112;1101;102267;-73
2022/11/13 00:53:27;;;;;;;72.47;39.00;;;;;;;3.81;81.84;102064.15;124053;1102;104217;-74
2022/11/13 00:56:17;;;;;;;72.97;38.00;;;;;;;3.76;82.67;102065.45;124080;1102;104175;-74
2022/11/13 00:59:07;;;;;;;73.27;39.10;;;;;;;3.71;82.26;102052.05;124039;1102;112054;-74
2022/11/13 01:01:57;;;;;;;73.97;38.37;;;;;;;3.66;82.18;102063.73;124034;1101;104254;-73
2022/11/13 01:04:46;;;;;;;84.47;39.07;;;;;;;3.61;82.40;102064.98;124076;1102;104245;-74
2022/11/13 01:07:38;;;;;;;101.70;39.30;;;;;;;3.55;82.81;102056.66;124053;1102;104176;-74
2022/11/13 01:10:28;;;;;;;83.73;40.50;;;;;;;3.45;81.67;102059.22;124124;1101;104242;-74
2022/11/13 01:13:18;;;;;;;90.07;44.00;;;;;;;3.40;82.15;102058.81;124236;1102;104303;-74
2022/11/13 01:16:10;;;;;;;89.80;48.17;;;;;;;3.41;82.29;102052.83;124153;1102;104245;-74
2022/11/13 01:19:00;;;;;;;104.10;50.47;;;;;;;3.41;82.46;102052.83;124138;1102;104577;-74
2022/11/13 01:21:50;;;;;;;88.30;49.07;;;;;;;3.38;82.35;102049.95;124214;1102;104281;-74
2022/11/13 01:24:40;;;;;;;99.70;53.17;;;;;;;3.34;82.42;102050.48;124262;1102;104369;-74
2022/11/13 01:27:30;;;;;;;103.10;46.97;;;;;;;3.33;82.62;102051.24;124138;1102;104185;-74
2022/11/13 01:30:20;;;;;;;100.23;48.27;;;;;;;3.32;82.76;102049.41;124142;1102;104223;-74
2022/11/13 01:33:10;;;;;;;95.70;42.97;;;;;;;3.30;82.75;102046.67;124135;1102;103833;-73
2022/11/13 01:36:04;;;;;;;100.10;51.73;;;;;;;3.27;82.89;102056.78;124051;1102;102873;-74
2022/11/13 01:38:54;;;;;;;113.30;59.60;;;;;;;3.33;82.84;102041.76;124060;1102;104344;-74
2022/11/13 01:41:44;;;;;;;117.40;63.70;;;;;;;3.45;83.34;102030.67;124040;1102;104274;-74
2022/11/13 01:47:35;;;;;;;139.23;73.40;;;;;;;3.64;83.22;102038.39;124195;1102;104229;-72
2022/11/13 01:50:27;;;;;;;141.47;72.50;;;;;;;3.68;83.31;102040.50;123955;1102;104037;-72
2022/11/13 01:53:18;;;;;;;145.17;69.63;;;;;;;3.62;82.99;102039.96;123944;1102;104012;-72
2022/11/13 01:56:10;;;;;;;160.93;73.87;;;;;;;3.50;82.67;102040.67;123938;1102;103980;-73
2022/11/13 01:59:09;;;;;;;145.60;71.25;;;;;;;3.43;83.16;102038.33;123875;1102;108042;-73
2022/11/13 02:02:00;;;;;;;136.10;68.93;;;;;;;3.38;83.19;102032.72;123928;1102;104105;-72
2022/11/13 02:04:51;;;;;;;145.40;69.13;;;;;;;3.34;83.50;102041.00;123977;1102;104040;-72
2022/11/13 02:07:42;;;;;;;160.03;69.77;;;;;;;3.31;83.13;102032.04;124040;1102;104006;-72
2022/11/13 02:10:32;;;;;;;165.43;71.90;;;;;;;3.28;83.76;102034.36;123987;1102;102018;-72
2022/11/13 02:13:25;;;;;;;154.30;73.00;;;;;;;3.28;84.01;102031.77;123864;1102;102071;-72
2022/11/13 02:16:17;;;;;;;157.43;75.53;;;;;;;3.30;83.26;102043.18;123900;1102;103980;-72
2022/11/13 02:19:14;;;;;;;141.53;70.70;;;;;;;3.30;83.68;102035.40;123954;1102;104044;-72
2022/11/13 02:22:11;;;;;;;160.23;72.80;;;;;;;3.35;83.82;102044.49;123937;1102;103983;-72
2022/11/13 02:25:04;;;;;;;137.03;70.13;;;;;;;3.36;83.49;102046.33;123917;1102;104037;-72
2022/11/13 02:27:55;;;;;;;132.33;66.53;;;;;;;3.31;84.14;102043.32;123915;1102;103696;-72
2022/11/13 02:30:46;;;;;;;137.53;65.77;;;;;;;3.26;84.24;102047.19;123954;1102;103478;-72
2022/11/13 02:33:37;;;;;;;136.87;67.13;;;;;;;3.18;85.06;102051.69;123952;1102;103902;-72
2022/11/13 02:36:30;;;;;;;116.33;62.47;;;;;;;3.13;84.54;102050.37;123945;1102;103977;-72
2022/11/13 02:39:20;;;;;;;120.80;60.27;;;;;;;3.13;85.37;102050.37;123903;1102;104027;-72
2022/11/13 02:42:11;;;;;;;117.57;59.80;;;;;;;3.06;85.19;102043.70;123931;1102;102597;-72
2022/11/13 02:45:02;;;;;;;127.10;60.03;;;;;;;3.03;85.34;102033.05;123906;1102;102027;-72
2022/11/13 02:47:53;;;;;;;118.33;57.57;;;;;;;3.03;85.52;102034.73;123894;1102;104095;-72
2022/11/13 02:50:44;;;;;;;126.20;60.23;;;;;;;3.01;86.72;102033.70;123981;1102;102007;-72
2022/11/13 02:53:34;;;;;;;119.27;56.33;;;;;;;3.01;85.23;102032.01;123966;1102;104143;-72
2022/11/13 02:56:25;;;;;;;122.27;56.13;;;;;;;2.97;86.00;102027.30;123931;1102;104102;-72
2022/11/13 02:59:16;;;;;;;122.23;54.90;;;;;;;2.91;86.40;102033.63;123967;1102;105217;-74
2022/11/13 03:02:06;;;;;;;127.40;57.83;;;;;;;2.84;85.79;102035.66;123915;1102;104111;-74
2022/11/13 03:04:57;;;;;;;130.30;57.57;;;;;;;2.81;86.11;102030.19;123960;1102;103948;-74
2022/11/13 03:07:48;;;;;;;120.80;58.10;;;;;;;2.79;86.05;102036.00;123949;1102;104140;-74
2022/11/13 03:10:38;;;;;;;124.37;56.37;;;;;;;2.76;85.63;102038.31;123885;1102;108332;-74
2022/11/13 03:13:29;;;;;;;126.50;56.63;;;;;;;2.75;85.62;102037.41;123940;1102;104491;-74
2022/11/13 03:16:20;;;;;;;133.00;61.77;;;;;;;2.77;85.65;102041.04;123985;1102;104037;-74
2022/11/13 03:19:11;;;;;;;131.57;62.77;;;;;;;2.87;86.12;102040.23;123984;1102;102103;-74
2022/11/13 03:22:01;;;;;;;127.60;59.70;;;;;;;2.95;85.68;102031.45;123951;1102;104191;-74
2022/11/13 03:24:52;;;;;;;127.20;56.87;;;;;;;2.98;86.35;102033.42;123875;1102;103948;-74
2022/11/13 03:27:43;;;;;;;136.40;61.10;;;;;;;2.97;86.17;102032.48;123889;1102;104054;-74
2022/11/13 03:30:34;;;;;;;117.07;54.00;;;;;;;2.99;86.13;102035.22;123906;1102;103951;-74
2022/11/13 03:33:24;;;;;;;125.00;57.70;;;;;;;2.97;86.11;102040.27;123918;1102;104133;-74
2022/11/13 03:36:15;;;;;;;123.70;57.43;;;;;;;2.96;86.04;102034.95;123935;1102;103964;-74
2022/11/13 03:39:06;;;;;;;123.77;55.10;;;;;;;2.95;86.14;102038.33;123903;1102;104166;-74
2022/11/13 03:41:57;;;;;;;134.33;59.47;;;;;;;2.90;85.96;102037.91;123908;1102;102617;-74
2022/11/13 03:44:48;;;;;;;134.00;61.27;;;;;;;2.86;85.95;102034.11;123912;1102;104009;-74
2022/11/13 03:47:39;;;;;;;125.33;58.60;;;;;;;2.81;86.64;102042.26;123942;1102;104083;-74
2022/11/13 03:50:30;;;;;;;121.20;57.90;;;;;;;2.73;86.15;102041.55;123993;1102;102203;-74
2022/11/13 03:53:21;;;;;;;134.97;61.50;;;;;;;2.73;86.79;102032.84;124052;1102;104108;-74
2022/11/13 03:56:12;;;;;;;139.07;63.90;;;;;;;2.76;86.36;102033.13;124128;1102;104051;-74
2022/11/13 03:59:02;;;;;;;134.93;65.20;;;;;;;2.79;86.15;102034.34;123890;1102;103955;-74
2022/11/13 04:01:53;;;;;;;122.63;57.90;;;;;;;2.81;86.59;102034.48;123955;1101;104047;-74
2022/11/13 04:04:44;;;;;;;124.43;57.97;;;;;;;2.80;86.26;102036.14;123949;1102;103964;-74
2022/11/13 04:07:35;;;;;;;139.47;62.33;;;;;;;2.83;87.12;102041.60;123893;1102;103945;-75
2022/11/13 04:10:26;;;;;;;129.03;58.37;;;;;;;2.78;86.55;102037.69;123971;1102;102613;-74
2022/11/13 04:13:17;;;;;;;126.07;57.60;;;;;;;2.73;87.01;102036.37;123953;1102;103980;-74
2022/11/13 04:16:08;;;;;;;118.20;52.37;;;;;;;2.73;87.38;102040.62;123964;1102;104006;-74
2022/11/13 04:18:59;;;;;;;123.87;55.93;;;;;;;2.67;86.76;102049.66;123957;1102;102825;-74
2022/11/13 04:21:50;;;;;;;128.50;56.67;;;;;;;2.63;87.67;102042.39;123888;1102;103647;-74
2022/11/13 04:24:40;;;;;;;128.33;59.50;;;;;;;2.61;86.47;102036.14;123901;1102;104062;-74
2022/11/13 04:27:31;;;;;;;130.87;57.63;;;;;;;2.69;87.37;102039.44;123884;1102;104019;-74
2022/11/13 04:30:22;;;;;;;126.17;58.73;;;;;;;2.79;87.09;102044.71;123969;1102;104158;-74
2022/11/13 04:33:13;;;;;;;145.30;63.25;;;;;;;2.85;87.10;102050.45;124062;1101;104057;-74
2022/11/13 04:36:04;;;;;;;135.07;60.40;;;;;;;2.87;87.10;102045.41;124068;1102;104008;-74
2022/11/13 04:38:55;;;;;;;138.77;61.53;;;;;;;2.88;87.17;102040.36;124075;1102;101836;-74
2022/11/13 04:44:55;;;;;;;124.33;54.83;;;;;;;2.98;87.56;102049.88;123952;1102;103945;-74
2022/11/13 04:50:43;;;;;;;114.60;53.17;;;;;;;2.88;87.72;102048.14;126835;1099;102812;-71
2022/11/13 04:53:34;;;;;;;108.60;51.20;;;;;;;2.85;87.17;102060.83;122530;1106;104127;-75
2022/11/13 04:56:25;;;;;;;120.35;56.25;;;;;;;2.82;87.58;102049.24;122387;1109;104079;-74
2022/11/13 04:59:16;;;;;;;124.07;57.67;;;;;;;2.77;87.88;102050.52;122400;1109;104108;-74
2022/11/13 05:02:07;;;;;;;133.43;60.10;;;;;;;2.80;87.47;102051.69;122408;1108;104216;-75
2022/11/13 05:04:58;;;;;;;136.57;61.20;;;;;;;2.88;87.65;102053.33;122331;1109;109205;-75
2022/11/13 05:07:49;;;;;;;126.47;59.37;;;;;;;2.98;87.80;102047.29;122376;1109;104130;-75
2022/11/13 05:10:40;;;;;;;121.90;59.33;;;;;;;3.01;87.81;102042.38;122428;1108;103983;-74
2022/11/13 05:13:32;;;;;;;133.57;58.23;;;;;;;3.04;87.96;102052.14;122357;1109;104066;-75
2022/11/13 05:16:22;;;;;;;125.90;57.77;;;;;;;3.08;88.12;102048.13;122396;1109;104154;-75
2022/11/13 05:19:13;;;;;;;138.67;60.53;;;;;;;3.16;88.27;102048.02;122278;1109;104124;-76
2022/11/13 05:22:05;;;;;;;127.27;59.00;;;;;;;3.21;88.32;102041.59;122399;1109;104078;-75
2022/11/13 05:24:55;;;;;;;118.83;53.03;;;;;;;3.22;88.18;102045.98;122357;1109;104108;-74
2022/11/13 05:27:46;;;;;;;120.23;54.83;;;;;;;3.24;88.41;102048.72;122401;1109;104013;-74
2022/11/13 05:30:36;;;;;;;124.50;55.50;;;;;;;3.22;88.55;102043.39;122353;1109;104251;-75
2022/11/13 05:33:30;;;;;;;122.00;53.25;;;;;;;3.21;88.40;102049.38;122360;1108;104152;-76
2022/11/13 05:36:22;;;;;;;124.43;54.87;;;;;;;3.19;88.95;102044.81;122356;1109;104121;-75
2022/11/13 05:39:13;;;;;;;113.43;50.13;;;;;;;3.18;88.57;102041.31;122325;1109;104145;-75
2022/11/13 05:42:04;;;;;;;120.90;54.87;;;;;;;3.25;88.57;102037.58;122386;1109;104152;-75
2022/11/13 05:44:55;;;;;;;129.67;57.57;;;;;;;3.32;88.69;102046.81;122347;1109;104159;-74
2022/11/13 05:47:46;;;;;;;131.30;58.47;;;;;;;3.42;88.45;102047.77;122353;1109;104082;-75
2022/11/13 05:50:37;;;;;;;137.93;59.43;;;;;;;3.53;88.65;102046.13;122385;1109;104155;-75
2022/11/13 05:53:28;;;;;;;138.07;61.10;;;;;;;3.59;88.95;102051.88;122327;1109;104130;-75
2022/11/13 05:56:23;;;;;;;133.70;62.87;;;;;;;3.70;88.78;102046.73;122403;1109;104073;-75
2022/11/13 05:59:13;;;;;;;131.57;64.00;;;;;;;3.79;88.34;102055.33;122335;1109;104181;-75
2022/11/13 06:02:04;;;;;;;137.33;64.97;;;;;;;3.85;89.15;102050.67;122380;1109;104210;-75
2022/11/13 06:04:55;;;;;;;129.17;60.87;;;;;;;3.86;87.92;102055.06;122361;1108;104146;-75
2022/11/13 06:07:48;;;;;;;129.83;61.23;;;;;;;3.83;88.33;102052.20;122401;1108;104069;-75
2022/11/13 06:10:39;;;;;;;136.45;63.95;;;;;;;3.80;88.06;102059.72;122378;1109;104046;-75
2022/11/13 06:13:30;;;;;;;134.37;60.83;;;;;;;3.80;89.09;102057.13;122523;1109;104181;-75
2022/11/13 06:16:23;;;;;;;133.87;59.97;;;;;;;3.80;88.76;102051.93;122419;1109;105248;-74
2022/11/13 06:19:14;;;;;;;128.77;60.90;;;;;;;3.85;88.86;102055.86;122403;1108;104101;-74
2022/11/13 06:22:05;;;;;;;130.50;58.60;;;;;;;3.89;88.57;102057.94;122456;1109;104105;-75
2022/11/13 06:24:55;;;;;;;130.33;60.87;;;;;;;3.96;88.55;102052.52;122349;1108;104111;-74
2022/11/13 06:27:46;;;;;;;143.97;63.07;;;;;;;4.10;88.91;102058.91;122407;1109;104027;-75
2022/11/13 06:30:37;;;;;;;132.57;58.67;;;;;;;4.23;89.31;102059.97;122343;1108;104661;-76
2022/11/13 06:33:29;;;;;;;131.70;57.20;;;;;;;4.26;89.20;102053.34;122349;1108;104155;-75
2022/11/13 06:36:23;;;;;;;132.03;58.77;;;;;;;4.29;89.67;102056.20;122401;1109;104129;-74
2022/11/13 06:39:13;;;;;;;142.03;60.80;;;;;;;4.36;89.64;102052.42;122398;1109;104458;-75
2022/11/13 06:42:04;;;;;;;133.53;61.73;;;;;;;4.42;89.64;102052.05;122456;1109;104040;-75
2022/11/13 06:44:55;;;;;;;151.43;65.40;;;;;;;4.47;89.81;102045.55;122311;1109;104208;-75
2022/11/13 06:47:46;;;;;;;142.83;60.80;;;;;;;4.51;89.87;102047.64;122381;1109;104077;-75
2022/11/13 06:50:36;;;;;;;145.23;62.50;;;;;;;4.61;90.22;102036.31;122382;1109;103980;-75
2022/11/13 06:53:27;;;;;;;130.63;56.20;;;;;;;4.75;89.76;102029.67;122414;1109;104495;-74
2022/11/13 06:56:19;;;;;;;150.07;65.50;;;;;;;4.86;90.62;102029.80;122366;1107;104069;-75
2022/11/13 06:59:10;;;;;;;151.07;66.97;;;;;;;4.96;90.25;102027.97;122828;1109;104063;-75
2022/11/13 07:02:01;;;;;;;152.13;66.80;;;;;;;5.10;90.28;102026.50;122417;1109;104040;-74
2022/11/13 07:04:52;;;;;;;137.77;61.43;;;;;;;5.25;91.00;102026.83;122439;1109;104156;-74
2022/11/13 07:07:43;;;;;;;137.25;62.30;;;;;;;5.34;90.25;102025.88;122425;1109;104059;-76
2022/11/13 07:10:33;;;;;;;145.87;64.83;;;;;;;5.43;90.46;102019.62;122412;1108;104181;-74
2022/11/13 07:13:25;;;;;;;148.33;65.47;;;;;;;5.49;90.37;102015.80;122366;1109;104217;-75
2022/11/13 07:16:18;;;;;;;151.37;67.07;;;;;;;5.56;90.75;102019.80;122377;1109;104143;-74
2022/11/13 07:19:08;;;;;;;152.80;65.47;;;;;;;5.60;90.07;102019.27;122386;1109;104044;-74
2022/11/13 07:21:59;;;;;;;156.50;69.17;;;;;;;5.68;90.38;102015.57;122371;1108;104046;-76
2022/11/13 07:24:50;;;;;;;136.80;60.27;;;;;;;5.78;90.43;102018.91;122408;1109;104252;-75
2022/11/13 07:27:46;;;;;;;142.00;62.20;;;;;;;5.88;90.15;102021.47;122333;1108;104213;-74
2022/11/13 07:30:37;;;;;;;146.30;63.87;;;;;;;5.94;90.43;102016.73;122431;1109;104075;-75
2022/11/13 07:33:28;;;;;;;132.93;59.43;;;;;;;6.05;90.33;102015.02;122441;1109;104145;-74
2022/11/13 07:36:19;;;;;;;135.05;60.10;;;;;;;6.09;90.51;102017.05;122383;1109;104117;-75
2022/11/13 07:39:10;;;;;;;133.35;60.40;;;;;;;6.15;90.43;102012.31;122561;1109;118990;-75
2022/11/13 07:42:00;;;;;;;123.37;57.90;;;;;;;6.21;90.58;102019.71;122556;1109;104136;-75
2022/11/13 07:44:51;;;;;;;141.80;62.30;;;;;;;6.28;90.34;102022.91;122487;1109;104149;-75
2022/11/13 07:47:42;;;;;;;136.20;60.63;;;;;;;6.41;90.63;102019.55;122427;1109;104069;-75
2022/11/13 07:50:34;;;;;;;135.85;63.00;;;;;;;6.55;90.65;102011.88;122441;1108;104073;-75
2022/11/13 07:53:25;;;;;;;137.43;61.83;;;;;;;6.69;90.78;102016.44;122334;1109;104112;-75
2022/11/13 07:56:16;;;;;;;133.15;65.10;;;;;;;6.85;90.90;102015.88;122349;1108;104268;-75
2022/11/13 07:59:07;;;;;;;141.67;59.90;;;;;;;6.98;90.84;102004.64;122374;1109;104066;-75
2022/11/13 08:01:57;;;;;;;140.50;62.53;;;;;;;7.06;91.10;102003.53;122381;1108;104141;-75
2022/11/13 08:04:48;;;;;;;125.93;56.47;;;;;;;7.12;90.90;102009.20;122380;1109;104060;-74
2022/11/13 08:07:39;;;;;;;131.23;58.80;;;;;;;7.17;90.76;102004.33;122472;1108;104423;-75
2022/11/13 08:10:30;;;;;;;127.00;58.80;;;;;;;7.24;90.83;102005.67;122341;1108;104175;-75
2022/11/13 08:13:21;;;;;;;133.87;62.80;;;;;;;7.27;90.75;101998.97;122330;1109;104140;-75
2022/11/13 08:16:11;;;;;;;126.80;57.87;;;;;;;7.35;90.97;102003.06;122354;1109;104497;-74
2022/11/13 08:19:03;;;;;;;135.50;62.30;;;;;;;7.45;91.02;101999.41;122361;1108;104136;-74
2022/11/13 08:21:54;;;;;;;142.23;62.63;;;;;;;7.59;91.29;101996.86;122470;1109;104171;-74
2022/11/13 08:24:45;;;;;;;139.17;65.67;;;;;;;7.69;90.73;102000.24;122323;1108;104117;-76
2022/11/13 08:27:37;;;;;;;128.67;63.93;;;;;;;7.80;90.98;102006.23;122424;1109;104069;-74
2022/11/13 08:30:29;;;;;;;133.60;65.20;;;;;;;7.92;90.82;102006.20;122360;1109;110734;-76
2022/11/13 08:33:20;;;;;;;131.60;63.05;;;;;;;8.02;90.90;101999.91;122377;1109;104207;-74
2022/11/13 08:36:12;;;;;;;131.10;63.55;;;;;;;8.10;90.71;102001.34;122366;1108;104305;-74
2022/11/13 08:39:03;;;;;;;121.90;60.90;;;;;;;8.14;90.89;102003.37;122369;1109;104647;-75
2022/11/13 08:41:54;;;;;;;118.40;59.75;;;;;;;8.17;91.02;102003.59;122383;1109;104069;-75
2022/11/13 08:44:45;;;;;;;127.23;61.47;;;;;;;8.19;90.75;102009.83;122332;1109;104201;-75
2022/11/13 08:47:36;;;;;;;133.20;62.43;;;;;;;8.13;90.92;102006.78;122415;1108;104118;-75
2022/11/13 08:50:27;;;;;;;133.35;62.70;;;;;;;8.14;90.59;102007.71;122419;1109;104232;-75
2022/11/13 08:53:18;;;;;;;121.90;58.35;;;;;;;8.16;90.75;102001.77;122396;1109;104144;-75
2022/11/13 08:56:09;;;;;;;114.67;58.07;;;;;;;8.15;91.18;102006.89;122399;1108;104034;-75
2022/11/13 08:59:00;;;;;;;118.07;54.83;;;;;;;8.17;91.27;102000.98;122375;1109;104085;-75
2022/11/13 09:01:57;;;;;;;119.87;59.03;;;;;;;8.17;91.16;101998.36;122409;1109;104091;-75
2022/11/13 09:04:48;;;;;;;122.40;57.80;;;;;;;8.16;91.12;101993.92;122378;1108;104622;-75
2022/11/13 09:07:38;;;;;;;125.17;59.20;;;;;;;8.18;90.86;101988.80;122346;1109;104130;-74
2022/11/13 09:10:30;;;;;;;121.07;57.07;;;;;;;8.22;91.47;101991.73;122400;1109;104034;-75
2022/11/13 09:13:21;;;;;;;127.67;56.50;;;;;;;8.25;91.05;101994.56;122347;1109;104099;-75
2022/11/13 09:16:11;;;;;;;130.97;55.77;;;;;;;8.28;91.17;101988.64;122394;1109;104069;-75
2022/11/13 09:19:03;;;;;;;127.80;55.63;;;;;;;8.32;91.46;101979.29;122390;1109;104072;-75
2022/11/13 09:21:54;;;;;;;116.80;52.20;;;;;;;8.35;91.05;101984.73;122304;1109;110068;-75
2022/11/13 09:24:46;;;;;;;120.77;54.57;;;;;;;8.40;91.70;101980.75;122404;1106;104079;-75
2022/11/13 09:27:37;;;;;;;119.87;55.10;;;;;;;8.45;91.42;101976.76;122373;1109;104159;-75
2022/11/13 09:30:29;;;;;;;123.00;53.90;;;;;;;8.52;91.37;101980.69;122285;1109;104153;-75
2022/11/13 09:33:21;;;;;;;121.23;54.00;;;;;;;8.58;91.67;101976.77;122334;1108;104143;-75
2022/11/13 09:36:16;;;;;;;120.33;48.57;;;;;;;8.64;90.64;101981.52;122452;1109;104187;-75
2022/11/13 09:39:07;;;;;;;115.47;48.53;;;;;;;8.71;91.10;101978.52;122428;1109;104095;-74
2022/11/13 09:42:05;;;;;;;107.90;47.60;;;;;;;8.78;91.02;101970.25;122338;1109;104089;-75
2022/11/13 09:45:00;;;;;;;111.57;47.73;;;;;;;8.85;91.53;101966.35;122373;1109;104496;-76
2022/11/13 09:47:55;;;;;;;108.60;48.80;;;;;;;8.93;91.52;101967.75;122411;1109;104110;-74
2022/11/13 09:50:46;;;;;;;107.12;47.95;;;;;;;9.00;91.34;101959.47;122331;1109;104143;-74
2022/11/13 09:53:39;;;;;;;108.77;48.20;;;;;;;9.08;91.26;101956.46;122387;1109;104158;-75
2022/11/13 09:56:34;;;;;;;107.97;47.30;;;;;;;9.11;90.40;101964.52;122387;1108;104236;-74
2022/11/13 09:59:32;;;;;;;113.90;48.68;;;;;;;9.12;90.46;101955.86;122387;1109;104028;-74
2022/11/13 10:02:33;;;;;;;107.77;43.87;;;;;;;9.15;90.42;101958.69;122399;1109;104293;-76
2022/11/13 10:05:29;;;;;;;108.83;43.37;;;;;;;9.14;90.82;101956.86;122342;1108;104099;-75
2022/11/13 10:08:22;;;;;;;106.27;41.80;;;;;;;9.13;90.12;101965.52;122386;1109;104047;-75
2022/11/13 10:11:20;;;;;;;101.23;41.63;;;;;;;9.12;90.82;101948.01;122428;1109;103974;-75
2022/11/13 10:14:17;;;;;;;102.03;41.07;;;;;;;9.11;90.87;101939.22;122424;1109;104040;-76
2022/11/13 10:17:15;;;;;;;95.65;42.60;;;;;;;9.16;90.87;101945.69;122438;1107;104695;-74
2022/11/13 10:20:12;;;;;;;102.63;40.60;;;;;;;9.20;91.05;101945.89;122362;1109;104200;-75
2022/11/13 10:23:09;;;;;;;98.27;40.20;;;;;;;9.21;91.15;101939.81;122383;1108;104057;-74
2022/11/13 10:26:13;;;;;;;93.45;41.10;;;;;;;9.21;90.44;101940.75;122329;1109;104046;-75
2022/11/13 10:29:10;;;;;;;98.97;41.23;;;;;;;9.21;90.77;101943.37;122333;1109;104075;-74
2022/11/13 10:32:14;;;;;;;100.70;42.90;;;;;;;9.18;90.71;101948.41;122370;1109;104192;-74
2022/11/13 10:35:23;;;;;;;98.23;39.87;;;;;;;9.15;91.26;101948.20;122344;1109;104644;-75
2022/11/13 10:38:24;;;;;;;102.23;41.03;;;;;;;9.11;90.89;101935.71;122317;1108;104111;-74
2022/11/13 10:41:17;;;;;;;91.33;38.67;;;;;;;9.08;91.41;101940.75;122358;1108;104019;-75
2022/11/13 10:44:19;;;;;;;93.03;39.23;;;;;;;9.04;91.08;101941.34;122425;1109;104172;-76
2022/11/13 10:47:18;;;;;;;88.27;36.60;;;;;;;8.98;91.61;101937.53;122425;1109;104046;-74
2022/11/13 10:50:19;;;;;;;83.33;36.67;;;;;;;8.92;91.67;101929.28;122407;1108;104197;-75
2022/11/13 10:53:18;;;;;;;80.10;35.87;;;;;;;8.91;91.41;101935.34;122421;1109;104105;-74
2022/11/13 10:56:25;;;;;;;93.30;37.30;;;;;;;8.89;92.18;101936.03;122407;1109;104025;-75
2022/11/13 10:59:19;;;;;;;82.40;35.87;;;;;;;8.86;92.01;101925.36;122401;1108;104037;-74
2022/11/13 11:02:20;;;;;;;88.20;35.60;;;;;;;8.86;92.41;101922.75;122444;1108;104310;-74
2022/11/13 11:05:19;;;;;;;80.00;36.60;;;;;;;8.87;91.78;101925.46;122362;1109;104015;-74
2022/11/13 11:08:14;;;;;;;81.93;32.83;;;;;;;8.88;92.10;101916.81;122606;1108;104174;-74
2022/11/13 11:14:40;;;;;;;69.65;30.45;;;;;;;8.94;92.18;101917.22;122564;1109;104069;-74
2022/11/13 11:17:38;;;;;;;67.40;30.10;;;;;;;8.95;92.53;101907.64;122455;1108;104133;-74
2022/11/13 11:20:44;;;;;;;67.27;30.90;;;;;;;8.93;92.01;101906.64;122420;1108;104168;-75
2022/11/13 11:23:41;;;;;;;77.23;33.10;;;;;;;8.90;92.41;101902.11;122417;1108;104159;-74
2022/11/13 11:26:35;;;;;;;82.30;37.47;;;;;;;8.88;91.89;101903.73;122087;1109;104062;-74
2022/11/13 11:29:28;;;;;;;;;;;;;;;8.90;91.95;101903.83;122601;1109;104478;-74
2022/11/13 11:32:25;;;;;;;99.90;46.93;;;;;;;8.92;92.06;101902.20;122461;1108;104137;-74
2022/11/13 11:35:21;;;;;;;114.03;56.03;;;;;;;8.94;91.85;101896.27;122419;1109;107524;-74
2022/11/13 11:38:15;;;;;;;115.27;58.40;;;;;;;8.96;92.64;101893.72;122450;1109;104516;-75
2022/11/13 11:41:12;;;;;;;112.40;61.47;;;;;;;8.96;91.99;101899.88;122603;1109;104088;-75
2022/11/13 11:44:13;;;;;;;110.77;59.30;;;;;;;8.98;91.90;101899.98;122488;1109;104115;-75
2022/11/13 11:47:04;;;;;;;104.20;54.50;;;;;;;8.98;92.23;101903.50;122462;1108;104082;-74
2022/11/13 11:49:56;;;;;;;102.23;53.43;;;;;;;8.98;91.78;101893.02;122448;1109;104268;-74
2022/11/13 11:52:59;;;;;;;90.70;47.40;;;;;;;8.98;92.03;101889.51;122533;1109;104458;-75
2022/11/13 11:56:08;;;;;;;95.83;51.90;;;;;;;9.02;91.84;101882.75;122451;1109;111693;-73
2022/11/13 11:59:24;;;;;;;92.40;48.37;;;;;;;9.07;91.66;101891.80;122458;1109;104123;-75
2022/11/13 12:02:54;;;;;;;79.27;41.90;;;;;;;9.09;91.83;101895.44;122465;1109;104096;-75
2022/11/13 12:05:53;;;;;;;75.17;35.20;;;;;;;9.10;92.18;101898.16;122361;1109;104073;-75
2022/11/13 12:08:52;;;;;;;65.53;30.90;;;;;;;9.13;91.79;101893.11;122539;1108;104066;-74
2022/11/13 12:11:52;;;;;;;58.53;29.63;;;;;;;9.11;91.75;101893.81;122449;1109;104067;-75
2022/11/13 12:14:54;;;;;;;61.73;30.47;;;;;;;9.10;91.24;101886.75;122455;1109;104133;-74
2022/11/13 12:17:56;;;;;;;58.23;29.77;;;;;;;9.11;92.00;101885.95;122540;1109;104147;-74
2022/11/13 12:20:56;;;;;;;57.00;29.60;;;;;;;9.09;91.31;101884.96;122513;1107;104556;-76
2022/11/13 12:24:03;;;;;;;57.50;29.47;;;;;;;9.07;91.40;101887.48;122960;1109;104121;-74
2022/11/13 12:27:06;;;;;;;53.53;28.47;;;;;;;9.03;92.20;101890.70;122606;1109;109599;-74
2022/11/13 12:30:09;;;;;;;52.30;26.80;;;;;;;9.00;91.36;101887.88;122530;1108;104070;-74
2022/11/13 12:33:18;;;;;;;54.17;27.17;;;;;;;8.98;91.56;101886.89;122474;1108;104060;-74
2022/11/13 12:36:12;;;;;;;51.37;24.03;;;;;;;8.96;91.77;101886.80;122439;1109;104187;-75
2022/11/13 12:39:11;;;;;;;50.73;25.00;;;;;;;8.93;92.20;101889.22;122430;1108;104146;-75
2022/11/13 12:42:09;;;;;;;56.33;27.77;;;;;;;8.90;92.19;101896.87;122571;1109;104775;-74
2022/11/13 12:45:08;;;;;;;53.53;28.10;;;;;;;8.90;92.04;101893.36;122343;1109;104142;-76
2022/11/13 12:48:09;;;;;;;47.75;24.70;;;;;;;8.89;91.75;101887.19;122458;1108;117738;-76
2022/11/13 12:51:02;;;;;;;46.03;22.03;;;;;;;8.85;91.60;101882.59;122432;1108;104076;-74
2022/11/13 12:53:55;;;;;;;47.53;24.13;;;;;;;8.79;91.55;101883.08;122511;1109;104472;-75
2022/11/13 12:56:46;;;;;;;47.50;24.63;;;;;;;8.80;91.86;101881.36;122449;1109;104102;-74
2022/11/13 12:59:40;;;;;;;47.13;24.97;;;;;;;8.81;92.25;101880.56;122511;1109;104133;-73
2022/11/13 13:02:40;;;;;;;49.05;25.30;;;;;;;8.81;91.91;101877.95;122442;1108;104046;-74
2022/11/13 13:05:53;;;;;;;51.10;25.90;;;;;;;8.79;91.89;101879.57;122384;1108;104650;-74